Time;durP1;ratioP1;P1;durP2;ratioP2;P2;SDS_P1;SDS_P2;PMS_P1;PMS_P2;Temp;Humidity;BMP_temperature;BMP_pressure;BME280_temperature;BME280_humidity;BME280_pressure;Samples;Min_cycle;Max_cycle;Signal;HPM_P1;HPM_P2
2022/10/14 00:01:12;;;;;;;17.42;8.58;;;;;;;12.00;91.98;99579.27;1639849;87;21047;-79
2022/10/14 00:03:41;;;;;;;18.42;9.95;;;;;;;12.02;92.06;99574.87;1613657;88;21060;-79
2022/10/14 00:06:19;;;;;;;17.67;8.95;;;;;;;12.05;92.10;99573.03;1613456;87;21012;-79
2022/10/14 00:08:48;;;;;;;16.45;8.58;;;;;;;12.10;92.34;99575.55;1632758;87;21051;-79
2022/10/14 00:11:20;;;;;;;24.55;10.03;;;;;;;12.16;92.56;99568.88;1615513;87;21165;-79
2022/10/14 00:13:47;;;;;;;20.52;9.40;;;;;;;12.20;92.93;99563.16;1633266;87;21028;-79
2022/10/14 00:16:27;;;;;;;19.23;8.98;;;;;;;12.24;92.80;99563.03;1622895;87;21052;-79
2022/10/14 00:18:54;;;;;;;22.05;8.98;;;;;;;12.27;93.16;99561.64;1628576;87;21117;-79
2022/10/14 00:21:21;;;;;;;22.35;9.50;;;;;;;12.34;93.60;99551.94;1640462;87;21075;-79
2022/10/14 00:23:48;;;;;;;18.30;9.58;;;;;;;12.42;93.56;99561.72;1633085;87;21060;-79
2022/10/14 00:26:25;;;;;;;20.23;8.50;;;;;;;12.48;92.82;99554.20;1634541;87;21039;-78
2022/10/14 00:28:52;;;;;;;15.00;7.62;;;;;;;12.49;92.90;99561.11;1633810;87;21035;-80
2022/10/14 00:31:20;;;;;;;15.20;8.33;;;;;;;12.48;92.43;99556.34;1635869;87;21000;-79
2022/10/14 00:33:47;;;;;;;16.05;7.85;;;;;;;12.47;91.90;99558.98;1637691;87;21012;-79
2022/10/14 00:36:17;;;;;;;21.15;9.08;;;;;;;12.46;92.17;99556.83;1637688;87;21046;-79
2022/10/14 00:38:47;;;;;;;19.45;8.20;;;;;;;12.51;92.59;99551.49;1637451;87;21053;-79
2022/10/14 00:41:18;;;;;;;17.80;8.60;;;;;;;12.57;92.51;99550.48;1639205;87;21140;-79
2022/10/14 00:43:59;;;;;;;25.37;9.30;;;;;;;12.61;92.05;99549.50;1636099;87;21047;-80
2022/10/14 00:46:29;;;;;;;23.98;9.65;;;;;;;12.57;91.96;99538.75;1626329;87;21060;-78
2022/10/14 00:49:08;;;;;;;20.80;8.83;;;;;;;12.60;92.31;99539.53;1636812;88;21028;-79
2022/10/14 00:51:36;;;;;;;20.35;9.60;;;;;;;12.63;92.09;99545.95;1623627;85;21040;-79
2022/10/14 00:54:03;;;;;;;20.95;9.30;;;;;;;12.59;91.45;99545.63;1637436;88;21087;-78
2022/10/14 00:56:30;;;;;;;18.90;10.08;;;;;;;12.51;91.31;99536.72;1630160;88;21028;-79
2022/10/14 00:59:00;;;;;;;21.40;10.95;;;;;;;12.49;92.15;99534.61;1637380;86;21024;-79
2022/10/14 01:01:26;;;;;;;23.57;9.80;;;;;;;12.50;92.43;99537.60;1618330;88;21552;-79
2022/10/14 01:03:53;;;;;;;21.12;10.53;;;;;;;12.50;92.83;99539.36;1637489;88;21057;-80
2022/10/14 01:06:53;;;;;;;21.50;11.80;;;;;;;12.51;93.20;99537.15;1631855;88;21535;-79
2022/10/14 01:09:37;;;;;;;25.25;11.50;;;;;;;12.49;93.00;99538.52;1626416;88;21600;-79
2022/10/14 01:12:17;;;;;;;;;;;;;;;12.46;91.62;99535.97;1625749;88;21056;-77
2022/10/14 01:14:59;;;;;;;22.52;9.95;;;;;;;12.42;93.31;99531.73;1611225;88;20137;-79
2022/10/14 01:17:53;;;;;;;21.57;10.88;;;;;;;12.38;92.48;99529.25;1620644;88;21029;-79
2022/10/14 01:20:34;;;;;;;23.10;10.30;;;;;;;12.33;92.16;99519.80;1637341;88;21020;-79
2022/10/14 01:23:29;;;;;;;21.25;9.45;;;;;;;12.31;91.76;99512.89;1629981;88;21008;-79
2022/10/14 01:26:30;;;;;;;22.85;10.13;;;;;;;12.31;92.37;99513.77;1637377;86;20977;-79
2022/10/14 01:29:36;;;;;;;24.87;11.15;;;;;;;12.33;92.12;99517.62;1643125;87;21611;-77
2022/10/14 01:32:12;;;;;;;25.08;10.63;;;;;;;12.31;92.91;99512.89;1631099;88;21059;-77
2022/10/14 01:34:46;;;;;;;23.47;11.05;;;;;;;12.33;92.60;99518.92;1619873;88;21032;-77
2022/10/14 01:37:18;;;;;;;25.32;11.50;;;;;;;12.28;94.23;99501.25;1634756;85;21553;-79
2022/10/14 01:40:01;;;;;;;19.82;10.63;;;;;;;12.29;93.92;99501.64;1621033;86;21032;-78
2022/10/14 01:42:33;;;;;;;20.63;10.20;;;;;;;12.31;93.56;99506.37;1633605;88;21048;-79
2022/10/14 01:45:12;;;;;;;23.73;11.28;;;;;;;12.32;94.36;99509.41;1634317;86;21552;-79
2022/10/14 01:47:41;;;;;;;23.00;11.15;;;;;;;12.34;94.79;99505.86;1614988;88;21060;-79
2022/10/14 01:50:14;;;;;;;20.85;10.25;;;;;;;12.38;94.32;99514.45;1637397;88;21051;-79
2022/10/14 01:52:50;;;;;;;19.92;10.88;;;;;;;12.41;94.41;99517.42;1635426;87;21039;-79
2022/10/14 01:55:23;;;;;;;21.27;10.58;;;;;;;12.39;93.99;99515.30;1636051;87;21067;-80
2022/10/14 01:57:56;;;;;;;18.17;10.20;;;;;;;12.40;93.90;99516.58;1635773;87;21084;-79
2022/10/14 02:00:24;;;;;;;19.98;9.90;;;;;;;12.40;94.37;99516.58;1631554;88;21036;-78
2022/10/14 02:02:52;;;;;;;23.22;10.20;;;;;;;12.39;94.26;99509.64;1636781;88;21039;-77
2022/10/14 02:05:31;;;;;;;26.87;10.60;;;;;;;12.40;94.46;99511.36;1630473;88;21056;-78
2022/10/14 02:08:26;;;;;;;22.00;10.03;;;;;;;12.40;94.20;99513.13;1637291;88;21031;-78
2022/10/14 02:11:16;;;;;;;29.52;10.85;;;;;;;12.41;94.44;99518.73;1636787;88;21106;-79
2022/10/14 02:14:05;;;;;;;20.23;10.18;;;;;;;12.37;94.82;99520.55;1635429;88;20988;-79
2022/10/14 02:16:49;;;;;;;21.40;11.18;;;;;;;12.31;94.31;99511.59;1600748;89;21092;-79
2022/10/14 02:19:39;;;;;;;22.32;11.50;;;;;;;12.28;95.02;99519.50;1623550;87;21071;-79
2022/10/14 02:22:43;;;;;;;21.97;11.95;;;;;;;12.29;94.49;99517.29;1637084;87;21389;-79
2022/10/14 02:25:25;;;;;;;21.90;10.35;;;;;;;12.28;95.11;99518.20;1629159;88;21086;-79
2022/10/14 02:27:53;;;;;;;20.52;10.80;;;;;;;12.29;94.16;99518.59;1614536;88;21520;-78
2022/10/14 02:30:21;;;;;;;23.22;10.78;;;;;;;12.27;93.91;99513.87;1629495;88;21598;-78
2022/10/14 02:32:53;;;;;;;20.25;10.82;;;;;;;12.24;95.09;99514.81;1636284;87;21088;-78
2022/10/14 02:35:24;;;;;;;22.75;10.72;;;;;;;12.23;94.76;99510.93;1626140;87;21011;-79
2022/10/14 02:37:55;;;;;;;25.00;10.78;;;;;;;12.25;94.77;99513.05;1635631;88;21088;-79
2022/10/14 02:40:34;;;;;;;20.77;10.58;;;;;;;12.26;94.40;99508.27;1625497;88;21083;-79
2022/10/14 02:43:02;;;;;;;20.92;10.68;;;;;;;12.26;95.46;99513.47;1624747;88;21028;-79
2022/10/14 02:45:29;;;;;;;19.30;10.98;;;;;;;12.24;94.76;99503.53;1626662;86;21035;-79
2022/10/14 02:47:57;;;;;;;21.35;11.12;;;;;;;12.25;95.10;99500.86;1626079;88;21044;-78
2022/10/14 02:50:25;;;;;;;25.12;13.25;;;;;;;12.20;94.66;99490.17;1621916;88;21619;-81
2022/10/14 02:52:52;;;;;;;33.02;14.98;;;;;;;12.21;95.15;99501.84;1627355;88;21054;-79
2022/10/14 02:55:22;;;;;;;33.70;14.87;;;;;;;12.20;94.73;99497.53;1622362;88;21064;-79
2022/10/14 02:57:49;;;;;;;27.07;12.88;;;;;;;12.19;94.53;99500.17;1626573;88;21103;-79
2022/10/14 03:00:20;;;;;;;23.77;12.15;;;;;;;12.18;95.35;99504.54;1609842;88;21095;-78
2022/10/14 03:02:48;;;;;;;25.00;12.28;;;;;;;12.16;95.30;99503.72;1620370;88;21027;-78
2022/10/14 03:05:18;;;;;;;25.40;13.15;;;;;;;12.19;95.24;99502.78;1628216;87;21004;-79
2022/10/14 03:07:46;;;;;;;27.75;12.75;;;;;;;12.23;94.66;99503.95;1623230;88;21555;-78
2022/10/14 03:10:15;;;;;;;25.12;12.68;;;;;;;12.24;94.33;99506.98;1610707;88;21456;-79
2022/10/14 03:12:43;;;;;;;25.62;12.85;;;;;;;12.19;95.34;99497.11;1617802;88;21003;-78
2022/10/14 03:15:13;;;;;;;27.25;12.18;;;;;;;12.21;94.90;99500.98;1628328;87;21008;-77
2022/10/14 03:17:41;;;;;;;26.00;12.25;;;;;;;12.20;94.92;99501.90;1620365;88;21004;-79
2022/10/14 03:20:10;;;;;;;31.65;13.58;;;;;;;12.21;95.00;99499.23;1616454;88;21075;-78
2022/10/14 03:22:40;;;;;;;28.10;12.80;;;;;;;12.25;95.14;99497.41;1631562;87;21027;-78
2022/10/14 03:25:09;;;;;;;29.42;12.15;;;;;;;12.27;94.99;99500.83;1612034;89;21564;-79
2022/10/14 03:27:55;;;;;;;24.87;11.85;;;;;;;12.26;95.30;99492.16;1617606;88;21512;-79
2022/10/14 03:30:25;;;;;;;27.15;12.73;;;;;;;12.27;95.21;99499.07;1636137;87;21024;-79
2022/10/14 03:32:54;;;;;;;23.73;11.12;;;;;;;12.30;95.58;99499.01;1615047;88;21099;-78
2022/10/14 03:35:32;;;;;;;23.92;11.22;;;;;;;12.29;95.38;99492.52;1634949;88;21036;-79
2022/10/14 03:38:02;;;;;;;26.10;11.73;;;;;;;12.33;95.75;99495.45;1634343;87;21607;-79
2022/10/14 03:40:31;;;;;;;29.10;11.33;;;;;;;12.36;95.81;99495.39;1631737;88;21075;-79
2022/10/14 03:43:00;;;;;;;27.10;12.15;;;;;;;12.40;95.56;99500.94;1635781;88;21000;-79
2022/10/14 03:45:30;;;;;;;23.67;11.48;;;;;;;12.41;95.23;99505.69;1621960;87;21036;-79
2022/10/14 03:47:58;;;;;;;28.90;11.43;;;;;;;12.40;95.19;99498.78;1637023;87;21028;-79
2022/10/14 03:50:25;;;;;;;23.02;11.20;;;;;;;12.43;94.92;99501.29;1634862;88;21579;-78
2022/10/14 03:52:55;;;;;;;21.77;11.22;;;;;;;12.42;94.87;99501.75;1636945;88;21583;-79
2022/10/14 03:55:24;;;;;;;18.92;10.23;;;;;;;12.40;95.45;99500.94;1630744;87;21577;-79
2022/10/14 03:57:52;;;;;;;24.65;11.18;;;;;;;12.39;95.25;99499.66;1631863;87;20996;-79
2022/10/14 04:00:21;;;;;;;21.82;10.75;;;;;;;12.39;95.09;99500.51;1632784;88;21024;-78
2022/10/14 04:02:51;;;;;;;21.77;10.98;;;;;;;12.41;95.02;99494.80;1633507;88;21063;-79
2022/10/14 04:05:20;;;;;;;24.52;11.45;;;;;;;12.44;95.41;99499.95;1632441;87;22141;-78
2022/10/14 04:07:49;;;;;;;23.38;10.80;;;;;;;12.50;95.27;99494.58;1627889;87;21109;-79
2022/10/14 04:10:17;;;;;;;26.73;11.38;;;;;;;12.51;95.14;99502.83;1634665;87;21023;-79
2022/10/14 04:12:47;;;;;;;28.47;10.58;;;;;;;12.56;94.87;99494.86;1627336;88;21040;-78
2022/10/14 04:15:23;;;;;;;27.25;10.98;;;;;;;12.56;94.67;99499.23;1634794;87;21040;-78
2022/10/14 04:17:56;;;;;;;23.15;10.72;;;;;;;12.54;94.50;99496.20;1635033;87;21606;-77
2022/10/14 04:20:24;;;;;;;23.42;11.18;;;;;;;12.52;94.81;99495.84;1632987;87;21087;-78
2022/10/14 04:22:53;;;;;;;24.07;10.98;;;;;;;12.50;94.77;99495.88;1635634;88;21054;-80
2022/10/14 04:25:21;;;;;;;29.98;10.15;;;;;;;12.53;94.62;99491.02;1635464;88;21106;-80
2022/10/14 04:27:50;;;;;;;22.60;10.48;;;;;;;12.49;94.61;99488.97;1627250;88;21004;-78
2022/10/14 04:30:19;;;;;;;18.02;9.13;;;;;;;12.47;94.91;99489.45;1639072;88;21098;-78
2022/10/14 04:32:48;;;;;;;17.65;9.60;;;;;;;12.49;94.51;99496.80;1632873;88;21575;-79
2022/10/14 04:35:17;;;;;;;25.35;9.93;;;;;;;12.48;94.66;99500.73;1640423;88;21039;-80
2022/10/14 04:37:46;;;;;;;22.73;10.08;;;;;;;12.49;94.80;99494.19;1629198;87;20984;-79
2022/10/14 04:40:25;;;;;;;19.75;10.82;;;;;;;12.52;94.76;99499.76;1630601;87;21079;-81
2022/10/14 04:42:56;;;;;;;20.77;10.20;;;;;;;12.54;94.32;99494.90;1633940;87;21008;-79
2022/10/14 04:45:26;;;;;;;21.17;10.08;;;;;;;12.53;94.28;99497.11;1637500;87;21016;-78
2022/10/14 04:47:58;;;;;;;21.60;10.50;;;;;;;12.54;94.50;99497.97;1625398;86;21108;-78
2022/10/14 04:50:27;;;;;;;22.15;10.35;;;;;;;12.54;94.33;99493.59;1637624;87;21055;-80
2022/10/14 04:53:14;;;;;;;20.50;10.30;;;;;;;12.53;94.06;99491.02;1627848;87;21015;-81
2022/10/14 04:55:48;;;;;;;22.17;10.08;;;;;;;12.57;94.04;99490.04;1636127;87;21347;-81
2022/10/14 04:58:16;;;;;;;20.30;8.98;;;;;;;12.56;94.01;99490.11;1630189;88;21015;-80
2022/10/14 05:00:46;;;;;;;19.67;10.32;;;;;;;12.54;93.95;99488.38;1637696;88;21059;-79
2022/10/14 05:03:18;;;;;;;22.00;8.95;;;;;;;12.52;93.70;99490.17;1632736;87;21004;-79
2022/10/14 05:05:46;;;;;;;25.12;10.00;;;;;;;12.49;93.91;99490.70;1631548;88;22263;-78
2022/10/14 05:08:14;;;;;;;20.72;9.40;;;;;;;12.47;94.20;99485.97;1620073;87;21027;-77
2022/10/14 05:10:44;;;;;;;23.10;9.93;;;;;;;12.43;93.95;99490.86;1620580;87;21044;-80
2022/10/14 05:13:14;;;;;;;24.57;9.68;;;;;;;12.46;94.30;99486.88;1626353;87;21102;-79
2022/10/14 05:15:44;;;;;;;25.77;10.78;;;;;;;12.49;93.91;99492.88;1612329;88;21083;-81
2022/10/14 05:18:13;;;;;;;21.27;9.98;;;;;;;12.46;94.15;99494.25;1628289;88;22066;-78
2022/10/14 05:20:45;;;;;;;24.35;9.00;;;;;;;12.50;93.91;99492.42;1629122;88;21055;-78
2022/10/14 05:23:13;;;;;;;18.85;8.70;;;;;;;12.48;93.93;99502.04;1635562;88;21208;-78
2022/10/14 05:25:42;;;;;;;22.93;9.80;;;;;;;12.51;93.66;99497.61;1631078;88;21535;-78
2022/10/14 05:28:10;;;;;;;24.23;10.18;;;;;;;12.44;93.75;99494.73;1637024;88;21154;-79
2022/10/14 05:30:41;;;;;;;19.67;9.60;;;;;;;12.45;94.26;99501.65;1615912;88;21031;-78
2022/10/14 05:33:09;;;;;;;19.80;9.23;;;;;;;12.51;94.47;99498.91;1637287;88;21023;-81
2022/10/14 05:35:38;;;;;;;19.67;10.05;;;;;;;12.57;94.46;99493.10;1635264;87;21031;-79
2022/10/14 05:38:06;;;;;;;20.20;10.30;;;;;;;12.58;94.28;99495.68;1637445;87;21031;-78
2022/10/14 05:40:36;;;;;;;30.68;9.50;;;;;;;12.61;94.11;99500.80;1626425;87;21059;-78
2022/10/14 05:43:03;;;;;;;21.12;10.80;;;;;;;12.61;93.78;99490.81;1636785;88;21054;-78
2022/10/14 05:45:32;;;;;;;27.05;10.55;;;;;;;12.57;93.34;99500.93;1634036;88;21052;-78
2022/10/14 05:47:59;;;;;;;23.67;10.20;;;;;;;12.57;93.67;99490.50;1637138;86;21047;-79
2022/10/14 05:50:27;;;;;;;21.05;10.25;;;;;;;12.60;93.89;99494.34;1629833;87;21095;-78
2022/10/14 05:52:55;;;;;;;22.27;11.15;;;;;;;12.59;93.79;99496.07;1637251;86;20992;-79
2022/10/14 05:55:24;;;;;;;25.45;10.88;;;;;;;12.62;93.45;99492.55;1631482;86;21011;-78
2022/10/14 05:57:57;;;;;;;21.20;9.50;;;;;;;12.59;93.37;99489.55;1607348;88;21587;-78
2022/10/14 06:00:27;;;;;;;18.95;10.13;;;;;;;12.56;93.69;99490.11;1627942;86;21111;-79
2022/10/14 06:02:57;;;;;;;17.60;9.83;;;;;;;12.57;93.74;99490.50;1635226;86;21106;-78
2022/10/14 06:05:25;;;;;;;21.00;9.98;;;;;;;12.56;93.60;99480.98;1625324;88;21102;-78
2022/10/14 06:07:53;;;;;;;22.10;10.78;;;;;;;12.56;93.75;99480.98;1630498;88;21071;-79
2022/10/14 06:10:21;;;;;;;24.50;10.60;;;;;;;12.57;93.78;99482.67;1630222;88;21095;-79
2022/10/14 06:12:49;;;;;;;24.52;10.55;;;;;;;12.61;93.55;99482.99;1628482;88;21299;-78
2022/10/14 06:15:17;;;;;;;22.67;10.53;;;;;;;12.60;93.45;99489.13;1626639;86;21595;-79
2022/10/14 06:17:45;;;;;;;21.85;9.90;;;;;;;12.58;93.71;99494.38;1630296;86;21126;-78
2022/10/14 06:20:12;;;;;;;25.27;10.82;;;;;;;12.62;93.57;99489.94;1623925;86;21063;-79
2022/10/14 06:22:40;;;;;;;24.00;11.93;;;;;;;12.69;93.34;99500.17;1621672;86;21035;-79
2022/10/14 06:25:08;;;;;;;25.77;11.15;;;;;;;12.68;93.22;99495.83;1630614;86;21661;-78
2022/10/14 06:27:36;;;;;;;26.25;11.85;;;;;;;12.70;93.29;99504.92;1620120;86;21172;-78
2022/10/14 06:30:05;;;;;;;28.77;12.88;;;;;;;12.72;92.97;99508.35;1626208;86;21110;-79
2022/10/14 06:32:32;;;;;;;30.45;13.05;;;;;;;12.74;93.19;99511.77;1625886;86;21075;-78
2022/10/14 06:35:00;;;;;;;36.20;13.55;;;;;;;12.73;93.27;99510.05;1630355;86;21023;-77
2022/10/14 06:37:28;;;;;;;31.75;12.47;;;;;;;12.76;93.50;99507.82;1630049;86;21016;-78
2022/10/14 06:39:56;;;;;;;27.48;11.55;;;;;;;12.81;93.06;99508.53;1630851;86;21023;-79
2022/10/14 06:42:24;;;;;;;27.60;11.78;;;;;;;12.81;92.89;99509.41;1630410;86;21075;-80
2022/10/14 06:44:52;;;;;;;28.17;11.22;;;;;;;12.84;92.88;99506.70;1624196;86;21039;-79
2022/10/14 06:47:20;;;;;;;25.27;11.45;;;;;;;12.86;92.87;99510.58;1627522;86;21564;-77
2022/10/14 06:49:48;;;;;;;24.12;10.30;;;;;;;12.90;93.02;99511.75;1631666;86;21051;-79
2022/10/14 06:52:16;;;;;;;29.48;11.55;;;;;;;12.98;92.81;99511.99;1630560;86;21079;-78
2022/10/14 06:54:43;;;;;;;27.40;10.90;;;;;;;13.03;92.59;99512.70;1634015;86;21548;-79
2022/10/14 06:57:11;;;;;;;25.80;10.55;;;;;;;13.04;92.71;99520.49;1627620;86;21554;-78
2022/10/14 06:59:39;;;;;;;27.65;11.95;;;;;;;13.05;92.47;99517.42;1629848;86;21157;-78
2022/10/14 07:02:08;;;;;;;41.00;18.15;;;;;;;13.07;92.47;99516.93;1632500;87;21071;-78
2022/10/14 07:04:36;;;;;;;22.85;11.15;;;;;;;13.11;92.56;99515.94;1641783;85;21076;-79
2022/10/14 07:07:04;;;;;;;31.77;11.80;;;;;;;13.18;92.04;99512.72;1630485;86;21047;-78
2022/10/14 07:09:31;;;;;;;91.40;46.58;;;;;;;13.26;92.05;99513.35;1634278;87;21093;-79
2022/10/14 07:12:00;;;;;;;41.35;22.70;;;;;;;13.29;91.91;99506.33;1627504;86;21086;-78
2022/10/14 07:14:28;;;;;;;32.65;15.08;;;;;;;13.37;91.75;99506.10;1629325;86;21052;-79
2022/10/14 07:16:55;;;;;;;29.87;17.20;;;;;;;13.39;91.04;99502.99;1628863;86;21075;-78
2022/10/14 07:19:23;;;;;;;29.85;19.80;;;;;;;13.45;91.18;99503.23;1634307;86;21544;-79
2022/10/14 07:21:51;;;;;;;27.30;16.97;;;;;;;13.39;90.34;99509.95;1632729;86;21386;-78
2022/10/14 07:24:18;;;;;;;20.82;11.15;;;;;;;13.38;90.69;99513.47;1632869;86;21115;-78
2022/10/14 07:26:46;;;;;;;26.45;16.23;;;;;;;13.42;90.64;99515.09;1624515;86;21000;-80
2022/10/14 07:29:14;;;;;;;19.57;10.35;;;;;;;13.42;90.88;99502.88;1633623;86;21611;-78
2022/10/14 07:31:41;;;;;;;19.32;10.30;;;;;;;13.48;90.73;99510.98;1630259;87;21055;-78
2022/10/14 07:34:09;;;;;;;16.45;8.63;;;;;;;13.50;90.49;99505.27;1633728;85;21397;-79
2022/10/14 07:36:37;;;;;;;16.52;8.70;;;;;;;13.52;90.27;99504.30;1630991;86;21622;-78
2022/10/14 07:39:05;;;;;;;21.82;10.08;;;;;;;13.52;90.43;99506.08;1629195;87;21208;-79
2022/10/14 07:41:33;;;;;;;30.97;16.70;;;;;;;13.56;89.97;99511.61;1632055;86;21056;-79
2022/10/14 07:44:08;;;;;;;27.65;17.77;;;;;;;13.59;89.83;99511.95;1631964;86;21055;-79
2022/10/14 07:46:38;;;;;;;19.52;11.15;;;;;;;13.59;89.23;99508.91;1626567;86;21071;-79
2022/10/14 07:49:11;;;;;;;19.75;11.18;;;;;;;13.58;89.43;99509.80;1634329;87;21564;-79
2022/10/14 07:51:41;;;;;;;27.17;12.90;;;;;;;13.61;89.64;99524.09;1632001;86;21000;-80
2022/10/14 07:54:19;;;;;;;26.37;14.63;;;;;;;13.64;89.63;99523.13;1638699;86;21071;-80
2022/10/14 07:56:50;;;;;;;28.42;11.83;;;;;;;13.72;89.22;99519.36;1632447;86;21008;-80
2022/10/14 07:59:20;;;;;;;30.77;13.55;;;;;;;13.77;89.32;99517.94;1635505;86;21008;-80
2022/10/14 08:01:50;;;;;;;30.50;14.90;;;;;;;13.83;89.38;99527.34;1633500;87;21071;-80
2022/10/14 08:04:18;;;;;;;26.42;11.57;;;;;;;13.87;89.47;99520.66;1632229;87;21075;-79
2022/10/14 08:06:49;;;;;;;27.17;15.85;;;;;;;13.99;89.30;99523.33;1629687;87;21111;-80
2022/10/14 08:09:18;;;;;;;24.30;12.35;;;;;;;14.01;88.49;99525.91;1625210;87;21091;-80
2022/10/14 08:11:46;;;;;;;23.02;10.30;;;;;;;14.03;89.05;99521.02;1625729;87;21054;-80
2022/10/14 08:14:15;;;;;;;19.05;9.28;;;;;;;14.09;88.25;99520.81;1633104;87;21103;-80
2022/10/14 08:16:43;;;;;;;22.85;11.45;;;;;;;14.12;88.81;99515.50;1632542;85;21068;-80
2022/10/14 08:19:11;;;;;;;21.17;11.18;;;;;;;14.18;88.49;99520.11;1627380;87;21004;-78
2022/10/14 08:21:40;;;;;;;20.43;10.00;;;;;;;14.26;88.35;99515.02;1629638;87;20997;-80
2022/10/14 08:24:08;;;;;;;20.25;9.83;;;;;;;14.32;87.94;99517.45;1630745;87;21083;-81
2022/10/14 08:26:49;;;;;;;21.85;10.45;;;;;;;14.37;86.90;99519.91;1630729;87;21027;-80
2022/10/14 08:29:17;;;;;;;22.42;8.85;;;;;;;14.35;87.36;99512.56;1636219;86;21087;-82
2022/10/14 08:31:45;;;;;;;18.40;9.43;;;;;;;14.46;87.74;99516.11;1634194;86;21009;-77
2022/10/14 08:34:13;;;;;;;16.67;8.90;;;;;;;14.57;87.83;99514.02;1634949;87;21063;-78
2022/10/14 08:36:41;;;;;;;18.05;10.18;;;;;;;14.77;87.60;99514.63;1628922;86;21352;-79
2022/10/14 08:39:09;;;;;;;20.27;9.10;;;;;;;14.91;87.24;99520.67;1630372;86;20969;-78
2022/10/14 08:42:06;;;;;;;20.02;9.75;;;;;;;15.03;86.34;99520.22;1631924;86;21080;-78
2022/10/14 08:44:48;;;;;;;20.32;9.38;;;;;;;15.05;86.46;99516.25;1629414;86;21035;-78
2022/10/14 08:47:25;;;;;;;18.95;9.88;;;;;;;15.25;86.04;99517.66;1632165;86;21067;-80
2022/10/14 08:50:24;;;;;;;17.57;8.65;;;;;;;15.46;86.00;99506.84;1626010;86;21062;-79
2022/10/14 08:53:15;;;;;;;20.25;10.35;;;;;;;15.65;85.44;99508.73;1631768;88;20996;-78
2022/10/14 08:55:53;;;;;;;17.25;8.48;;;;;;;15.70;84.43;99511.57;1626226;87;20992;-78
2022/10/14 08:58:44;;;;;;;19.98;9.10;;;;;;;15.79;82.70;99514.77;1630999;86;21049;-78
2022/10/14 09:01:31;;;;;;;16.42;8.63;;;;;;;15.88;82.33;99512.64;1631528;86;21165;-79
2022/10/14 09:04:09;;;;;;;20.80;10.35;;;;;;;15.82;81.77;99509.42;1633508;86;21051;-79
2022/10/14 09:06:40;;;;;;;17.00;8.45;;;;;;;15.81;81.91;99507.70;1629810;86;21004;-79
2022/10/14 09:09:25;;;;;;;16.15;8.70;;;;;;;15.88;81.28;99506.55;1631844;86;21058;-78
2022/10/14 09:12:03;;;;;;;16.80;9.68;;;;;;;15.91;81.38;99505.95;1619569;88;20992;-79
2022/10/14 09:14:35;;;;;;;15.40;9.00;;;;;;;15.88;80.62;99499.53;1625294;88;21043;-79
2022/10/14 09:17:14;;;;;;;18.15;9.20;;;;;;;15.98;81.54;99507.88;1631185;86;21136;-80
2022/10/14 09:20:07;;;;;;;23.92;12.88;;;;;;;16.06;81.53;99497.92;1623510;86;21059;-80
2022/10/14 09:22:35;;;;;;;27.22;12.73;;;;;;;16.25;81.15;99499.77;1625489;88;21524;-79
2022/10/14 09:25:16;;;;;;;19.70;8.83;;;;;;;16.43;80.86;99508.20;1633211;88;21051;-79
2022/10/14 09:27:44;;;;;;;16.45;8.45;;;;;;;16.62;80.71;99497.75;1620616;87;21557;-79
2022/10/14 09:30:16;;;;;;;15.88;8.15;;;;;;;16.78;79.46;99497.94;1614247;88;21086;-79
2022/10/14 09:32:51;;;;;;;15.58;8.23;;;;;;;16.87;77.51;99512.45;1621744;88;21019;-80
2022/10/14 09:35:30;;;;;;;16.02;7.80;;;;;;;16.93;78.63;99511.33;1639646;87;21209;-78
2022/10/14 09:37:58;;;;;;;16.05;7.72;;;;;;;17.12;77.94;99511.38;1631210;86;21045;-78
2022/10/14 09:40:36;;;;;;;15.15;7.70;;;;;;;17.03;76.87;99515.25;1624404;88;21708;-80
2022/10/14 09:43:12;;;;;;;12.65;7.12;;;;;;;17.19;77.43;99514.09;1638220;87;21077;-79
2022/10/14 09:46:02;;;;;;;18.23;8.13;;;;;;;17.37;76.71;99512.39;1625716;88;21492;-78
2022/10/14 09:48:47;;;;;;;16.75;7.42;;;;;;;17.43;74.48;99516.08;1630635;86;21586;-82
2022/10/14 09:51:29;;;;;;;14.20;7.67;;;;;;;17.54;76.04;99507.20;1631768;86;20988;-80
2022/10/14 09:54:03;;;;;;;14.35;7.45;;;;;;;17.65;74.69;99502.77;1630854;86;21110;-79
2022/10/14 09:56:44;;;;;;;15.10;7.25;;;;;;;17.81;74.35;99497.63;1631764;86;21100;-81
2022/10/14 09:59:21;;;;;;;16.40;7.22;;;;;;;17.93;73.81;99501.00;1616790;87;21107;-80
2022/10/14 10:01:56;;;;;;;16.48;6.83;;;;;;;17.88;73.14;99504.30;1632609;86;21087;-84
2022/10/14 10:04:45;;;;;;;16.17;7.30;;;;;;;17.70;71.85;99502.07;1627875;87;21072;-78
2022/10/14 10:07:34;;;;;;;11.95;7.17;;;;;;;17.78;72.18;99502.55;1622412;88;21042;-80
2022/10/14 10:10:10;;;;;;;18.25;7.33;;;;;;;17.97;71.08;99505.19;1603426;88;20992;-78
2022/10/14 10:12:40;;;;;;;15.93;7.25;;;;;;;17.91;72.32;99504.17;1628585;88;21068;-80
2022/10/14 10:15:13;;;;;;;15.23;6.78;;;;;;;17.92;70.43;99505.86;1631144;88;21047;-80
2022/10/14 10:17:40;;;;;;;;;;;;;;;17.95;71.06;99500.47;1627817;88;21037;-80
2022/10/14 10:20:29;;;;;;;13.90;6.42;;;;;;;18.01;70.02;99500.63;1632872;88;20131;-80
2022/10/14 10:22:59;;;;;;;12.05;6.67;;;;;;;18.10;70.83;99497.53;1626567;88;21079;-80
2022/10/14 10:25:27;;;;;;;11.70;6.40;;;;;;;18.24;70.90;99498.16;1632441;87;21080;-80
2022/10/14 10:27:58;;;;;;;11.97;6.33;;;;;;;18.36;71.17;99498.84;1629115;87;21047;-81
2022/10/14 10:30:31;;;;;;;13.53;7.15;;;;;;;18.28;69.64;99492.68;1601796;88;21032;-81
2022/10/14 10:33:24;;;;;;;12.68;6.28;;;;;;;18.29;69.83;99491.73;1623017;88;21580;-81
2022/10/14 10:36:27;;;;;;;15.70;7.03;;;;;;;18.34;70.04;99488.86;1628794;88;21099;-79
2022/10/14 10:39:01;;;;;;;;;;;;;;;18.37;69.75;99487.41;1633456;88;21182;-79
2022/10/14 10:41:43;;;;;;;14.20;7.15;;;;;;;18.14;67.78;99483.76;1627007;88;20156;-79
2022/10/14 10:44:40;;;;;;;13.85;6.80;;;;;;;18.17;69.30;99485.78;1630125;87;21045;-79
2022/10/14 10:47:47;;;;;;;12.88;6.90;;;;;;;18.06;68.97;99481.06;1608201;88;21639;-79
2022/10/14 10:50:51;;;;;;;11.05;6.65;;;;;;;18.12;68.80;99479.03;1611884;88;21610;-82
2022/10/14 10:53:45;;;;;;;11.18;6.08;;;;;;;18.19;67.95;99478.66;1609120;88;21051;-80
2022/10/14 10:56:39;;;;;;;12.73;6.08;;;;;;;18.34;68.89;99474.86;1607886;88;21035;-80
2022/10/14 10:59:34;;;;;;;14.35;7.12;;;;;;;18.28;67.57;99473.38;1616211;88;21559;-80
2022/10/14 11:02:36;;;;;;;13.35;6.72;;;;;;;18.34;67.71;99458.59;1617236;88;21028;-80
2022/10/14 11:05:30;;;;;;;15.00;6.05;;;;;;;18.42;67.59;99458.20;1614689;88;21040;-80
2022/10/14 11:14:33;;;;;;;17.45;8.63;;;;;;;18.49;66.43;99455.17;1617340;88;21035;-78
2022/10/14 11:17:32;;;;;;;26.25;13.13;;;;;;;18.43;66.36;99452.86;1616342;88;21606;-79
2022/10/14 11:20:40;;;;;;;14.55;6.87;;;;;;;18.53;65.92;99447.97;1618148;88;20988;-79
2022/10/14 11:23:38;;;;;;;13.72;6.50;;;;;;;18.57;66.29;99444.72;1618376;88;21007;-80
2022/10/14 11:26:19;;;;;;;13.25;6.75;;;;;;;18.58;67.25;99442.45;1572972;90;21548;-79
2022/10/14 11:29:08;;;;;;;14.28;6.33;;;;;;;18.41;65.28;99434.14;1609953;88;21106;-79
2022/10/14 11:31:50;;;;;;;15.03;6.28;;;;;;;18.39;66.66;99431.58;1614082;88;21579;-79
2022/10/14 11:34:41;;;;;;;13.65;6.22;;;;;;;18.31;64.04;99429.81;1598422;88;21025;-79
2022/10/14 11:37:17;;;;;;;10.65;5.95;;;;;;;18.29;65.85;99430.36;1609356;88;21025;-80
2022/10/14 11:40:01;;;;;;;16.67;7.08;;;;;;;18.19;63.44;99423.40;1609298;88;21070;-80
2022/10/14 11:42:52;;;;;;;15.48;6.08;;;;;;;18.17;65.73;99420.00;1612503;88;21051;-81
2022/10/14 11:45:40;;;;;;;17.23;7.40;;;;;;;18.31;64.22;99415.34;1573452;89;21102;-80
2022/10/14 11:48:25;;;;;;;14.63;6.80;;;;;;;18.72;65.58;99414.08;1610265;86;21027;-82
2022/10/14 11:51:10;;;;;;;13.95;6.22;;;;;;;18.95;64.31;99409.77;1632725;87;21121;-79
2022/10/14 11:54:02;;;;;;;14.93;5.90;;;;;;;19.20;64.75;99407.09;1605791;87;21113;-79
2022/10/14 11:56:52;;;;;;;11.30;6.60;;;;;;;19.52;61.65;99403.98;1613848;87;21065;-78
2022/10/14 12:00:00;;;;;;;16.55;7.25;;;;;;;19.85;60.96;99403.83;1620127;86;21070;-78
2022/10/14 12:03:08;;;;;;;11.95;6.47;;;;;;;20.00;59.31;99408.69;1629777;88;21031;-78